sensor_id;sensor_type;location;lat;lon;timestamp;P1;durP1;ratioP1;P2;durP2;ratioP2
49730;SDS011;35622;52.008;5.426;2023-06-10T00:00:54;11.50;;;10.50;;
49730;SDS011;35622;52.008;5.426;2023-06-10T00:03:20;12.63;;;11.35;;
49730;SDS011;35622;52.008;5.426;2023-06-10T00:05:48;12.05;;;10.75;;
49730;SDS011;35622;52.008;5.426;2023-06-10T00:08:14;14.35;;;11.07;;
49730;SDS011;35622;52.008;5.426;2023-06-10T00:10:40;11.82;;;10.63;;
49730;SDS011;35622;52.008;5.426;2023-06-10T00:13:06;12.35;;;11.25;;
49730;SDS011;35622;52.008;5.426;2023-06-10T00:15:36;12.07;;;10.90;;
49730;SDS011;35622;52.008;5.426;2023-06-10T00:18:02;12.68;;;11.07;;
49730;SDS011;35622;52.008;5.426;2023-06-10T00:20:29;12.10;;;10.98;;
49730;SDS011;35622;52.008;5.426;2023-06-10T00:22:55;12.25;;;11.15;;
49730;SDS011;35622;52.008;5.426;2023-06-10T00:25:22;12.07;;;10.88;;
49730;SDS011;35622;52.008;5.426;2023-06-10T00:27:47;12.15;;;10.88;;
49730;SDS011;35622;52.008;5.426;2023-06-10T00:30:13;12.00;;;10.80;;
49730;SDS011;35622;52.008;5.426;2023-06-10T00:32:39;12.05;;;10.85;;
49730;SDS011;35622;52.008;5.426;2023-06-10T00:35:04;12.32;;;11.07;;
49730;SDS011;35622;52.008;5.426;2023-06-10T00:37:31;12.35;;;11.07;;
49730;SDS011;35622;52.008;5.426;2023-06-10T00:39:57;12.45;;;11.25;;
49730;SDS011;35622;52.008;5.426;2023-06-10T00:42:23;13.93;;;11.73;;
49730;SDS011;35622;52.008;5.426;2023-06-10T00:44:53;12.93;;;11.68;;
49730;SDS011;35622;52.008;5.426;2023-06-10T00:47:20;12.75;;;11.55;;
49730;SDS011;35622;52.008;5.426;2023-06-10T00:49:46;13.02;;;10.50;;
49730;SDS011;35622;52.008;5.426;2023-06-10T00:52:12;12.40;;;11.15;;
49730;SDS011;35622;52.008;5.426;2023-06-10T00:54:39;12.18;;;10.88;;
49730;SDS011;35622;52.008;5.426;2023-06-10T00:57:05;12.90;;;11.60;;
49730;SDS011;35622;52.008;5.426;2023-06-10T00:59:31;14.82;;;11.02;;
49730;SDS011;35622;52.008;5.426;2023-06-10T01:01:57;13.68;;;11.55;;
49730;SDS011;35622;52.008;5.426;2023-06-10T01:04:23;14.38;;;10.95;;
49730;SDS011;35622;52.008;5.426;2023-06-10T01:12:38;12.98;;;10.90;;
49730;SDS011;35622;52.008;5.426;2023-06-10T01:15:04;12.52;;;11.23;;
49730;SDS011;35622;52.008;5.426;2023-06-10T01:17:31;13.88;;;11.02;;
49730;SDS011;35622;52.008;5.426;2023-06-10T01:19:56;12.57;;;11.27;;
49730;SDS011;35622;52.008;5.426;2023-06-10T01:22:23;11.73;;;10.57;;
49730;SDS011;35622;52.008;5.426;2023-06-10T01:24:50;13.65;;;10.73;;
49730;SDS011;35622;52.008;5.426;2023-06-10T01:27:17;13.43;;;11.00;;
49730;SDS011;35622;52.008;5.426;2023-06-10T01:29:49;12.48;;;10.75;;
49730;SDS011;35622;52.008;5.426;2023-06-10T01:32:37;12.88;;;11.52;;
49730;SDS011;35622;52.008;5.426;2023-06-10T01:35:05;13.55;;;10.82;;
49730;SDS011;35622;52.008;5.426;2023-06-10T01:37:33;12.48;;;10.88;;
49730;SDS011;35622;52.008;5.426;2023-06-10T01:40:01;11.98;;;10.77;;
49730;SDS011;35622;52.008;5.426;2023-06-10T01:42:30;13.98;;;11.02;;
49730;SDS011;35622;52.008;5.426;2023-06-10T01:44:57;12.27;;;11.07;;
49730;SDS011;35622;52.008;5.426;2023-06-10T01:47:23;11.98;;;10.73;;
49730;SDS011;35622;52.008;5.426;2023-06-10T01:49:48;14.05;;;10.75;;
49730;SDS011;35622;52.008;5.426;2023-06-10T01:52:14;12.23;;;10.93;;
49730;SDS011;35622;52.008;5.426;2023-06-10T01:54:40;12.75;;;10.63;;
49730;SDS011;35622;52.008;5.426;2023-06-10T01:57:05;11.32;;;9.85;;
49730;SDS011;35622;52.008;5.426;2023-06-10T01:59:31;15.38;;;10.60;;
49730;SDS011;35622;52.008;5.426;2023-06-10T02:01:57;11.38;;;10.27;;
49730;SDS011;35622;52.008;5.426;2023-06-10T02:04:22;11.82;;;10.48;;
49730;SDS011;35622;52.008;5.426;2023-06-10T02:06:48;12.05;;;10.27;;
49730;SDS011;35622;52.008;5.426;2023-06-10T02:09:14;11.93;;;10.50;;
49730;SDS011;35622;52.008;5.426;2023-06-10T02:11:39;13.30;;;9.90;;
49730;SDS011;35622;52.008;5.426;2023-06-10T02:14:05;13.73;;;9.82;;
49730;SDS011;35622;52.008;5.426;2023-06-10T02:16:30;11.00;;;9.80;;
49730;SDS011;35622;52.008;5.426;2023-06-10T02:18:56;10.65;;;9.55;;
49730;SDS011;35622;52.008;5.426;2023-06-10T02:21:21;11.30;;;9.43;;
49730;SDS011;35622;52.008;5.426;2023-06-10T02:23:47;10.52;;;9.00;;
49730;SDS011;35622;52.008;5.426;2023-06-10T02:26:12;12.55;;;9.60;;
49730;SDS011;35622;52.008;5.426;2023-06-10T02:28:38;11.07;;;9.13;;
49730;SDS011;35622;52.008;5.426;2023-06-10T02:31:08;11.20;;;9.43;;
49730;SDS011;35622;52.008;5.426;2023-06-10T02:33:33;10.63;;;9.52;;
49730;SDS011;35622;52.008;5.426;2023-06-10T02:35:59;11.27;;;9.82;;
49730;SDS011;35622;52.008;5.426;2023-06-10T02:38:24;11.00;;;9.32;;
49730;SDS011;35622;52.008;5.426;2023-06-10T02:40:50;10.00;;;8.50;;
49730;SDS011;35622;52.008;5.426;2023-06-10T02:43:15;12.90;;;9.27;;
49730;SDS011;35622;52.008;5.426;2023-06-10T02:45:41;10.07;;;9.07;;
49730;SDS011;35622;52.008;5.426;2023-06-10T02:48:06;10.23;;;8.95;;
49730;SDS011;35622;52.008;5.426;2023-06-10T02:50:32;10.65;;;9.25;;
49730;SDS011;35622;52.008;5.426;2023-06-10T02:52:57;10.95;;;9.57;;
49730;SDS011;35622;52.008;5.426;2023-06-10T02:55:23;11.27;;;9.15;;
49730;SDS011;35622;52.008;5.426;2023-06-10T02:57:51;10.63;;;8.77;;
49730;SDS011;35622;52.008;5.426;2023-06-10T03:00:17;11.32;;;9.25;;
49730;SDS011;35622;52.008;5.426;2023-06-10T03:02:45;11.60;;;8.43;;
49730;SDS011;35622;52.008;5.426;2023-06-10T03:05:10;11.35;;;8.95;;
49730;SDS011;35622;52.008;5.426;2023-06-10T03:07:38;11.25;;;8.63;;
49730;SDS011;35622;52.008;5.426;2023-06-10T03:10:05;9.50;;;8.50;;
49730;SDS011;35622;52.008;5.426;2023-06-10T03:12:31;11.23;;;8.95;;
49730;SDS011;35622;52.008;5.426;2023-06-10T03:14:57;12.07;;;9.18;;
49730;SDS011;35622;52.008;5.426;2023-06-10T03:17:23;11.10;;;8.20;;
49730;SDS011;35622;52.008;5.426;2023-06-10T03:19:48;9.07;;;8.18;;
49730;SDS011;35622;52.008;5.426;2023-06-10T03:22:14;9.90;;;8.90;;
49730;SDS011;35622;52.008;5.426;2023-06-10T03:24:41;10.27;;;8.35;;
49730;SDS011;35622;52.008;5.426;2023-06-10T03:27:08;11.27;;;8.52;;
49730;SDS011;35622;52.008;5.426;2023-06-10T03:29:35;10.73;;;8.30;;
49730;SDS011;35622;52.008;5.426;2023-06-10T03:32:04;11.50;;;8.10;;
49730;SDS011;35622;52.008;5.426;2023-06-10T03:34:31;9.90;;;8.25;;
49730;SDS011;35622;52.008;5.426;2023-06-10T03:36:56;11.23;;;8.15;;
49730;SDS011;35622;52.008;5.426;2023-06-10T03:39:23;12.13;;;8.02;;
49730;SDS011;35622;52.008;5.426;2023-06-10T03:41:49;9.93;;;7.80;;
49730;SDS011;35622;52.008;5.426;2023-06-10T03:44:15;11.00;;;8.18;;
49730;SDS011;35622;52.008;5.426;2023-06-10T03:46:40;9.45;;;7.40;;
49730;SDS011;35622;52.008;5.426;2023-06-10T03:49:06;10.38;;;8.32;;
49730;SDS011;35622;52.008;5.426;2023-06-10T03:51:32;10.45;;;7.97;;
49730;SDS011;35622;52.008;5.426;2023-06-10T03:53:58;12.10;;;8.15;;
49730;SDS011;35622;52.008;5.426;2023-06-10T03:56:23;10.13;;;7.63;;
49730;SDS011;35622;52.008;5.426;2023-06-10T03:58:49;10.32;;;7.68;;
49730;SDS011;35622;52.008;5.426;2023-06-10T04:01:14;9.85;;;7.65;;
49730;SDS011;35622;52.008;5.426;2023-06-10T04:03:40;9.68;;;6.95;;
49730;SDS011;35622;52.008;5.426;2023-06-10T04:06:06;9.07;;;6.93;;
49730;SDS011;35622;52.008;5.426;2023-06-10T04:08:32;8.93;;;7.32;;
49730;SDS011;35622;52.008;5.426;2023-06-10T04:10:58;8.25;;;6.93;;
49730;SDS011;35622;52.008;5.426;2023-06-10T04:13:24;10.60;;;7.32;;
49730;SDS011;35622;52.008;5.426;2023-06-10T04:15:49;12.43;;;7.30;;
49730;SDS011;35622;52.008;5.426;2023-06-10T04:18:15;11.02;;;7.78;;
49730;SDS011;35622;52.008;5.426;2023-06-10T04:20:41;9.32;;;7.20;;
49730;SDS011;35622;52.008;5.426;2023-06-10T04:23:07;10.10;;;7.57;;
49730;SDS011;35622;52.008;5.426;2023-06-10T04:25:33;15.07;;;7.63;;
49730;SDS011;35622;52.008;5.426;2023-06-10T04:27:59;9.35;;;6.72;;
49730;SDS011;35622;52.008;5.426;2023-06-10T04:30:24;9.25;;;6.57;;
49730;SDS011;35622;52.008;5.426;2023-06-10T04:32:50;9.57;;;6.50;;
49730;SDS011;35622;52.008;5.426;2023-06-10T04:35:15;8.90;;;6.50;;
49730;SDS011;35622;52.008;5.426;2023-06-10T04:37:41;7.60;;;6.45;;
49730;SDS011;35622;52.008;5.426;2023-06-10T04:40:08;10.10;;;6.72;;
49730;SDS011;35622;52.008;5.426;2023-06-10T04:42:34;10.80;;;6.53;;
49730;SDS011;35622;52.008;5.426;2023-06-10T04:45:00;9.25;;;6.85;;
49730;SDS011;35622;52.008;5.426;2023-06-10T04:47:27;9.02;;;5.95;;
49730;SDS011;35622;52.008;5.426;2023-06-10T04:49:53;10.93;;;6.72;;
49730;SDS011;35622;52.008;5.426;2023-06-10T04:52:18;8.43;;;5.90;;
49730;SDS011;35622;52.008;5.426;2023-06-10T04:54:44;7.72;;;5.72;;
49730;SDS011;35622;52.008;5.426;2023-06-10T04:57:10;7.68;;;5.80;;
49730;SDS011;35622;52.008;5.426;2023-06-10T04:59:36;10.18;;;6.32;;
49730;SDS011;35622;52.008;5.426;2023-06-10T05:02:03;8.45;;;5.95;;
49730;SDS011;35622;52.008;5.426;2023-06-10T05:04:29;7.70;;;5.70;;
49730;SDS011;35622;52.008;5.426;2023-06-10T05:06:55;9.07;;;5.90;;
49730;SDS011;35622;52.008;5.426;2023-06-10T05:09:20;8.90;;;5.32;;
49730;SDS011;35622;52.008;5.426;2023-06-10T05:11:46;8.65;;;5.80;;
49730;SDS011;35622;52.008;5.426;2023-06-10T05:14:11;10.20;;;6.18;;
49730;SDS011;35622;52.008;5.426;2023-06-10T05:16:37;8.40;;;6.05;;
49730;SDS011;35622;52.008;5.426;2023-06-10T05:19:03;7.82;;;5.35;;
49730;SDS011;35622;52.008;5.426;2023-06-10T05:21:29;7.22;;;5.50;;
49730;SDS011;35622;52.008;5.426;2023-06-10T05:23:55;7.97;;;5.50;;
49730;SDS011;35622;52.008;5.426;2023-06-10T05:26:20;10.48;;;6.00;;
49730;SDS011;35622;52.008;5.426;2023-06-10T05:28:46;9.65;;;5.97;;
49730;SDS011;35622;52.008;5.426;2023-06-10T05:31:12;8.68;;;5.75;;
49730;SDS011;35622;52.008;5.426;2023-06-10T05:33:38;10.88;;;6.28;;
49730;SDS011;35622;52.008;5.426;2023-06-10T05:36:04;8.50;;;5.60;;
49730;SDS011;35622;52.008;5.426;2023-06-10T05:38:30;8.20;;;5.32;;
49730;SDS011;35622;52.008;5.426;2023-06-10T05:40:56;7.00;;;5.45;;
49730;SDS011;35622;52.008;5.426;2023-06-10T05:43:22;7.28;;;5.38;;
49730;SDS011;35622;52.008;5.426;2023-06-10T05:45:47;7.72;;;5.32;;
49730;SDS011;35622;52.008;5.426;2023-06-10T05:48:13;7.30;;;5.45;;
49730;SDS011;35622;52.008;5.426;2023-06-10T05:50:39;7.40;;;5.20;;
49730;SDS011;35622;52.008;5.426;2023-06-10T05:53:07;9.35;;;5.75;;
49730;SDS011;35622;52.008;5.426;2023-06-10T05:55:39;7.97;;;5.53;;
49730;SDS011;35622;52.008;5.426;2023-06-10T05:58:08;8.25;;;5.65;;
49730;SDS011;35622;52.008;5.426;2023-06-10T06:00:34;7.80;;;5.35;;
49730;SDS011;35622;52.008;5.426;2023-06-10T06:02:59;8.77;;;5.55;;
49730;SDS011;35622;52.008;5.426;2023-06-10T06:05:25;7.78;;;5.45;;
49730;SDS011;35622;52.008;5.426;2023-06-10T06:07:50;9.35;;;5.53;;
49730;SDS011;35622;52.008;5.426;2023-06-10T06:10:17;10.57;;;6.05;;
49730;SDS011;35622;52.008;5.426;2023-06-10T06:12:43;8.85;;;5.95;;
49730;SDS011;35622;52.008;5.426;2023-06-10T06:15:09;7.55;;;5.53;;
49730;SDS011;35622;52.008;5.426;2023-06-10T06:17:35;8.15;;;5.40;;
49730;SDS011;35622;52.008;5.426;2023-06-10T06:20:02;7.68;;;5.20;;
49730;SDS011;35622;52.008;5.426;2023-06-10T06:22:28;9.10;;;5.38;;
49730;SDS011;35622;52.008;5.426;2023-06-10T06:24:54;8.95;;;5.80;;
49730;SDS011;35622;52.008;5.426;2023-06-10T06:27:19;10.35;;;5.85;;
49730;SDS011;35622;52.008;5.426;2023-06-10T06:29:46;8.90;;;5.97;;
49730;SDS011;35622;52.008;5.426;2023-06-10T06:32:11;7.10;;;5.25;;
49730;SDS011;35622;52.008;5.426;2023-06-10T06:34:37;10.18;;;5.65;;
49730;SDS011;35622;52.008;5.426;2023-06-10T06:37:03;8.60;;;5.75;;
49730;SDS011;35622;52.008;5.426;2023-06-10T06:39:28;7.70;;;5.40;;
49730;SDS011;35622;52.008;5.426;2023-06-10T06:41:54;7.57;;;5.32;;
49730;SDS011;35622;52.008;5.426;2023-06-10T06:44:19;9.15;;;5.78;;
49730;SDS011;35622;52.008;5.426;2023-06-10T06:46:45;7.70;;;5.20;;
49730;SDS011;35622;52.008;5.426;2023-06-10T06:49:11;9.23;;;5.18;;
49730;SDS011;35622;52.008;5.426;2023-06-10T06:51:36;14.57;;;6.00;;
49730;SDS011;35622;52.008;5.426;2023-06-10T06:54:02;10.40;;;5.07;;
49730;SDS011;35622;52.008;5.426;2023-06-10T06:56:27;8.10;;;5.50;;
49730;SDS011;35622;52.008;5.426;2023-06-10T06:58:53;7.97;;;6.07;;
49730;SDS011;35622;52.008;5.426;2023-06-10T07:01:19;7.20;;;5.30;;
49730;SDS011;35622;52.008;5.426;2023-06-10T07:03:45;7.85;;;5.30;;
49730;SDS011;35622;52.008;5.426;2023-06-10T07:06:12;7.15;;;5.55;;
49730;SDS011;35622;52.008;5.426;2023-06-10T07:08:38;9.93;;;5.43;;
49730;SDS011;35622;52.008;5.426;2023-06-10T07:11:03;9.38;;;5.32;;
49730;SDS011;35622;52.008;5.426;2023-06-10T07:13:29;7.05;;;5.43;;
49730;SDS011;35622;52.008;5.426;2023-06-10T07:15:54;8.82;;;5.22;;
49730;SDS011;35622;52.008;5.426;2023-06-10T07:18:20;7.55;;;5.60;;
49730;SDS011;35622;52.008;5.426;2023-06-10T07:20:45;9.23;;;6.22;;
49730;SDS011;35622;52.008;5.426;2023-06-10T07:23:11;8.48;;;5.60;;
49730;SDS011;35622;52.008;5.426;2023-06-10T07:25:37;7.82;;;5.20;;
49730;SDS011;35622;52.008;5.426;2023-06-10T07:28:02;7.68;;;5.55;;
49730;SDS011;35622;52.008;5.426;2023-06-10T07:30:28;7.82;;;5.82;;
49730;SDS011;35622;52.008;5.426;2023-06-10T07:32:53;7.78;;;5.30;;
49730;SDS011;35622;52.008;5.426;2023-06-10T07:35:20;8.20;;;5.97;;
49730;SDS011;35622;52.008;5.426;2023-06-10T07:37:46;9.18;;;5.18;;
49730;SDS011;35622;52.008;5.426;2023-06-10T07:40:12;7.38;;;5.03;;
49730;SDS011;35622;52.008;5.426;2023-06-10T07:42:37;8.15;;;5.32;;
49730;SDS011;35622;52.008;5.426;2023-06-10T07:45:03;5.95;;;4.97;;
49730;SDS011;35622;52.008;5.426;2023-06-10T07:47:30;6.88;;;5.15;;
49730;SDS011;35622;52.008;5.426;2023-06-10T07:49:56;5.68;;;5.03;;
49730;SDS011;35622;52.008;5.426;2023-06-10T07:52:21;7.18;;;4.82;;
49730;SDS011;35622;52.008;5.426;2023-06-10T07:54:47;6.72;;;4.50;;
49730;SDS011;35622;52.008;5.426;2023-06-10T07:57:12;6.50;;;4.75;;
49730;SDS011;35622;52.008;5.426;2023-06-10T07:59:38;8.10;;;4.90;;
49730;SDS011;35622;52.008;5.426;2023-06-10T08:02:04;6.43;;;5.78;;
49730;SDS011;35622;52.008;5.426;2023-06-10T08:04:30;6.43;;;5.00;;
49730;SDS011;35622;52.008;5.426;2023-06-10T08:06:57;6.55;;;4.70;;
49730;SDS011;35622;52.008;5.426;2023-06-10T08:09:22;5.63;;;4.97;;
49730;SDS011;35622;52.008;5.426;2023-06-10T08:11:48;5.80;;;4.75;;
49730;SDS011;35622;52.008;5.426;2023-06-10T08:14:14;9.05;;;5.22;;
49730;SDS011;35622;52.008;5.426;2023-06-10T08:16:41;5.82;;;4.85;;
49730;SDS011;35622;52.008;5.426;2023-06-10T08:19:07;5.90;;;5.30;;
49730;SDS011;35622;52.008;5.426;2023-06-10T08:21:34;6.68;;;5.68;;
49730;SDS011;35622;52.008;5.426;2023-06-10T08:24:02;6.63;;;5.10;;
49730;SDS011;35622;52.008;5.426;2023-06-10T08:26:28;6.22;;;4.70;;
49730;SDS011;35622;52.008;5.426;2023-06-10T08:28:53;8.35;;;5.28;;
49730;SDS011;35622;52.008;5.426;2023-06-10T08:31:20;8.20;;;4.78;;
49730;SDS011;35622;52.008;5.426;2023-06-10T08:33:46;5.43;;;4.93;;
49730;SDS011;35622;52.008;5.426;2023-06-10T08:36:11;7.10;;;4.95;;
49730;SDS011;35622;52.008;5.426;2023-06-10T08:38:37;5.43;;;4.93;;
49730;SDS011;35622;52.008;5.426;2023-06-10T08:41:04;6.32;;;5.10;;
49730;SDS011;35622;52.008;5.426;2023-06-10T08:46:23;5.63;;;4.95;;
49730;SDS011;35622;52.008;5.426;2023-06-10T08:48:49;5.72;;;5.07;;
49730;SDS011;35622;52.008;5.426;2023-06-10T08:51:20;6.65;;;5.10;;
49730;SDS011;35622;52.008;5.426;2023-06-10T08:53:59;5.90;;;5.03;;
49730;SDS011;35622;52.008;5.426;2023-06-10T08:56:28;6.68;;;4.88;;
49730;SDS011;35622;52.008;5.426;2023-06-10T08:58:56;7.35;;;5.05;;
49730;SDS011;35622;52.008;5.426;2023-06-10T09:01:23;6.50;;;5.25;;
49730;SDS011;35622;52.008;5.426;2023-06-10T09:03:50;6.15;;;5.20;;
49730;SDS011;35622;52.008;5.426;2023-06-10T09:06:17;6.90;;;5.00;;
49730;SDS011;35622;52.008;5.426;2023-06-10T09:08:43;6.53;;;5.00;;
49730;SDS011;35622;52.008;5.426;2023-06-10T09:11:09;6.15;;;5.45;;
49730;SDS011;35622;52.008;5.426;2023-06-10T09:13:34;5.57;;;4.95;;
49730;SDS011;35622;52.008;5.426;2023-06-10T09:16:00;6.22;;;5.00;;
49730;SDS011;35622;52.008;5.426;2023-06-10T09:18:30;6.07;;;5.15;;
49730;SDS011;35622;52.008;5.426;2023-06-10T09:20:56;5.93;;;4.68;;
49730;SDS011;35622;52.008;5.426;2023-06-10T09:23:21;5.78;;;5.28;;
49730;SDS011;35622;52.008;5.426;2023-06-10T09:25:53;5.65;;;5.10;;
49730;SDS011;35622;52.008;5.426;2023-06-10T09:28:21;5.47;;;4.95;;
49730;SDS011;35622;52.008;5.426;2023-06-10T09:30:47;7.20;;;4.88;;
49730;SDS011;35622;52.008;5.426;2023-06-10T09:33:13;5.50;;;5.00;;
49730;SDS011;35622;52.008;5.426;2023-06-10T09:35:47;5.65;;;5.07;;
49730;SDS011;35622;52.008;5.426;2023-06-10T09:38:14;7.72;;;5.13;;
49730;SDS011;35622;52.008;5.426;2023-06-10T09:40:48;6.30;;;4.88;;
49730;SDS011;35622;52.008;5.426;2023-06-10T09:43:17;5.88;;;5.28;;
49730;SDS011;35622;52.008;5.426;2023-06-10T09:45:43;5.63;;;5.03;;
49730;SDS011;35622;52.008;5.426;2023-06-10T09:48:09;5.82;;;5.07;;
49730;SDS011;35622;52.008;5.426;2023-06-10T09:50:41;5.70;;;4.95;;
49730;SDS011;35622;52.008;5.426;2023-06-10T09:53:08;5.25;;;4.75;;
49730;SDS011;35622;52.008;5.426;2023-06-10T09:55:35;5.13;;;4.47;;
49730;SDS011;35622;52.008;5.426;2023-06-10T09:58:06;7.70;;;5.13;;
49730;SDS011;35622;52.008;5.426;2023-06-10T10:00:32;5.10;;;4.70;;
49730;SDS011;35622;52.008;5.426;2023-06-10T10:02:58;5.22;;;4.82;;
49730;SDS011;35622;52.008;5.426;2023-06-10T10:05:24;5.25;;;4.43;;
49730;SDS011;35622;52.008;5.426;2023-06-10T10:07:51;5.70;;;4.88;;
49730;SDS011;35622;52.008;5.426;2023-06-10T10:10:17;5.95;;;4.65;;
49730;SDS011;35622;52.008;5.426;2023-06-10T10:12:47;5.38;;;4.88;;
49730;SDS011;35622;52.008;5.426;2023-06-10T10:15:13;5.20;;;4.70;;
49730;SDS011;35622;52.008;5.426;2023-06-10T10:17:52;5.65;;;5.15;;
49730;SDS011;35622;52.008;5.426;2023-06-10T10:20:24;5.93;;;4.88;;
49730;SDS011;35622;52.008;5.426;2023-06-10T10:22:55;6.32;;;5.18;;
49730;SDS011;35622;52.008;5.426;2023-06-10T10:25:29;5.35;;;4.85;;
49730;SDS011;35622;52.008;5.426;2023-06-10T10:30:28;5.43;;;4.88;;
49730;SDS011;35622;52.008;5.426;2023-06-10T10:33:00;6.03;;;4.60;;
49730;SDS011;35622;52.008;5.426;2023-06-10T10:35:30;5.90;;;5.13;;
49730;SDS011;35622;52.008;5.426;2023-06-10T10:37:57;9.07;;;4.95;;
49730;SDS011;35622;52.008;5.426;2023-06-10T10:40:24;5.60;;;5.10;;
49730;SDS011;35622;52.008;5.426;2023-06-10T10:42:54;5.53;;;5.07;;
49730;SDS011;35622;52.008;5.426;2023-06-10T10:45:22;5.22;;;4.60;;
49730;SDS011;35622;52.008;5.426;2023-06-10T10:47:51;8.50;;;5.03;;
49730;SDS011;35622;52.008;5.426;2023-06-10T10:50:19;5.32;;;4.82;;
49730;SDS011;35622;52.008;5.426;2023-06-10T10:55:21;5.60;;;5.15;;
49730;SDS011;35622;52.008;5.426;2023-06-10T10:57:57;5.88;;;5.30;;
49730;SDS011;35622;52.008;5.426;2023-06-10T11:00:32;5.50;;;4.95;;
49730;SDS011;35622;52.008;5.426;2023-06-10T11:03:07;5.50;;;5.00;;
49730;SDS011;35622;52.008;5.426;2023-06-10T11:05:41;4.82;;;4.43;;
49730;SDS011;35622;52.008;5.426;2023-06-10T11:10:58;5.15;;;4.70;;
49730;SDS011;35622;52.008;5.426;2023-06-10T11:13:25;5.65;;;5.03;;
49730;SDS011;35622;52.008;5.426;2023-06-10T11:15:52;5.57;;;5.07;;
49730;SDS011;35622;52.008;5.426;2023-06-10T11:18:25;6.07;;;4.90;;
49730;SDS011;35622;52.008;5.426;2023-06-10T11:31:24;7.57;;;5.22;;
49730;SDS011;35622;52.008;5.426;2023-06-10T11:34:09;5.57;;;5.07;;
49730;SDS011;35622;52.008;5.426;2023-06-10T11:36:39;5.38;;;4.88;;
49730;SDS011;35622;52.008;5.426;2023-06-10T11:39:07;5.70;;;5.07;;
49730;SDS011;35622;52.008;5.426;2023-06-10T11:41:34;5.15;;;4.68;;
49730;SDS011;35622;52.008;5.426;2023-06-10T11:44:10;5.57;;;5.00;;
49730;SDS011;35622;52.008;5.426;2023-06-10T11:46:37;5.30;;;4.80;;
49730;SDS011;35622;52.008;5.426;2023-06-10T11:49:04;7.35;;;5.00;;
49730;SDS011;35622;52.008;5.426;2023-06-10T11:51:34;7.13;;;5.15;;
49730;SDS011;35622;52.008;5.426;2023-06-10T11:54:02;4.78;;;4.38;;
49730;SDS011;35622;52.008;5.426;2023-06-10T11:56:29;7.28;;;5.20;;
49730;SDS011;35622;52.008;5.426;2023-06-10T11:59:05;5.70;;;5.07;;
49730;SDS011;35622;52.008;5.426;2023-06-10T12:01:35;5.18;;;4.68;;
49730;SDS011;35622;52.008;5.426;2023-06-10T12:04:03;5.40;;;4.90;;
49730;SDS011;35622;52.008;5.426;2023-06-10T12:06:46;6.88;;;4.97;;
49730;SDS011;35622;52.008;5.426;2023-06-10T12:09:16;6.30;;;4.90;;
49730;SDS011;35622;52.008;5.426;2023-06-10T12:11:52;5.32;;;4.93;;
49730;SDS011;35622;52.008;5.426;2023-06-10T12:20:02;5.82;;;4.90;;
49730;SDS011;35622;52.008;5.426;2023-06-10T12:22:40;6.95;;;5.00;;
49730;SDS011;35622;52.008;5.426;2023-06-10T12:25:07;6.03;;;5.25;;
49730;SDS011;35622;52.008;5.426;2023-06-10T12:27:34;5.55;;;5.05;;
49730;SDS011;35622;52.008;5.426;2023-06-10T12:30:02;5.55;;;4.95;;
49730;SDS011;35622;52.008;5.426;2023-06-10T12:32:36;6.00;;;5.18;;
49730;SDS011;35622;52.008;5.426;2023-06-10T12:35:09;6.97;;;5.15;;
49730;SDS011;35622;52.008;5.426;2023-06-10T12:37:39;6.72;;;4.97;;
49730;SDS011;35622;52.008;5.426;2023-06-10T12:40:06;5.85;;;5.05;;
49730;SDS011;35622;52.008;5.426;2023-06-10T12:42:38;5.45;;;4.82;;
49730;SDS011;35622;52.008;5.426;2023-06-10T12:45:04;7.40;;;5.45;;
49730;SDS011;35622;52.008;5.426;2023-06-10T12:47:32;7.13;;;4.90;;
49730;SDS011;35622;52.008;5.426;2023-06-10T12:50:09;6.60;;;4.90;;
49730;SDS011;35622;52.008;5.426;2023-06-10T12:52:37;5.65;;;4.70;;
49730;SDS011;35622;52.008;5.426;2023-06-10T12:55:03;6.38;;;4.85;;
49730;SDS011;35622;52.008;5.426;2023-06-10T12:57:29;7.38;;;5.82;;
49730;SDS011;35622;52.008;5.426;2023-06-10T12:59:56;5.93;;;5.30;;
49730;SDS011;35622;52.008;5.426;2023-06-10T13:02:28;6.20;;;4.93;;
49730;SDS011;35622;52.008;5.426;2023-06-10T13:04:54;6.80;;;5.40;;
49730;SDS011;35622;52.008;5.426;2023-06-10T13:07:19;5.93;;;5.15;;
49730;SDS011;35622;52.008;5.426;2023-06-10T13:09:45;7.15;;;5.10;;
49730;SDS011;35622;52.008;5.426;2023-06-10T13:12:13;5.88;;;4.88;;
49730;SDS011;35622;52.008;5.426;2023-06-10T13:14:39;7.00;;;4.95;;
49730;SDS011;35622;52.008;5.426;2023-06-10T13:17:05;6.80;;;5.32;;
49730;SDS011;35622;52.008;5.426;2023-06-10T13:19:31;7.93;;;5.75;;
49730;SDS011;35622;52.008;5.426;2023-06-10T13:21:58;7.88;;;5.80;;
49730;SDS011;35622;52.008;5.426;2023-06-10T13:24:23;7.45;;;5.82;;
49730;SDS011;35622;52.008;5.426;2023-06-10T13:26:49;6.47;;;5.72;;
49730;SDS011;35622;52.008;5.426;2023-06-10T13:29:15;6.93;;;5.75;;
49730;SDS011;35622;52.008;5.426;2023-06-10T13:31:40;7.45;;;5.55;;
49730;SDS011;35622;52.008;5.426;2023-06-10T13:34:07;6.00;;;5.50;;
49730;SDS011;35622;52.008;5.426;2023-06-10T13:36:32;5.78;;;5.10;;
49730;SDS011;35622;52.008;5.426;2023-06-10T13:38:58;6.85;;;5.40;;
49730;SDS011;35622;52.008;5.426;2023-06-10T13:41:24;5.68;;;5.15;;
49730;SDS011;35622;52.008;5.426;2023-06-10T13:43:49;6.07;;;5.47;;
49730;SDS011;35622;52.008;5.426;2023-06-10T13:46:15;5.68;;;4.78;;
49730;SDS011;35622;52.008;5.426;2023-06-10T13:48:41;6.95;;;5.50;;
49730;SDS011;35622;52.008;5.426;2023-06-10T13:51:07;6.22;;;5.63;;
49730;SDS011;35622;52.008;5.426;2023-06-10T13:53:34;6.22;;;5.22;;
49730;SDS011;35622;52.008;5.426;2023-06-10T13:55:59;6.30;;;5.35;;
49730;SDS011;35622;52.008;5.426;2023-06-10T13:58:25;5.75;;;5.13;;
49730;SDS011;35622;52.008;5.426;2023-06-10T14:00:51;6.15;;;5.55;;
49730;SDS011;35622;52.008;5.426;2023-06-10T14:03:16;6.35;;;5.32;;
49730;SDS011;35622;52.008;5.426;2023-06-10T14:05:42;6.25;;;5.75;;
49730;SDS011;35622;52.008;5.426;2023-06-10T14:08:07;8.13;;;5.35;;
49730;SDS011;35622;52.008;5.426;2023-06-10T14:10:33;5.72;;;5.13;;
49730;SDS011;35622;52.008;5.426;2023-06-10T14:12:58;8.02;;;5.65;;
49730;SDS011;35622;52.008;5.426;2023-06-10T14:15:25;7.65;;;5.38;;
49730;SDS011;35622;52.008;5.426;2023-06-10T14:17:51;6.20;;;5.60;;
49730;SDS011;35622;52.008;5.426;2023-06-10T14:20:16;7.35;;;5.72;;
49730;SDS011;35622;52.008;5.426;2023-06-10T14:22:42;7.30;;;5.47;;
49730;SDS011;35622;52.008;5.426;2023-06-10T14:25:07;6.10;;;5.28;;
49730;SDS011;35622;52.008;5.426;2023-06-10T14:27:33;6.20;;;5.20;;
49730;SDS011;35622;52.008;5.426;2023-06-10T14:29:59;10.57;;;5.30;;
49730;SDS011;35622;52.008;5.426;2023-06-10T14:32:24;9.05;;;4.68;;
49730;SDS011;35622;52.008;5.426;2023-06-10T14:34:50;7.25;;;4.90;;
49730;SDS011;35622;52.008;5.426;2023-06-10T14:37:15;7.45;;;5.57;;
49730;SDS011;35622;52.008;5.426;2023-06-10T14:39:41;5.75;;;4.90;;
49730;SDS011;35622;52.008;5.426;2023-06-10T14:42:06;7.00;;;4.95;;
49730;SDS011;35622;52.008;5.426;2023-06-10T14:44:32;5.63;;;4.88;;
49730;SDS011;35622;52.008;5.426;2023-06-10T14:46:57;6.15;;;5.10;;
49730;SDS011;35622;52.008;5.426;2023-06-10T14:49:23;9.73;;;5.35;;
49730;SDS011;35622;52.008;5.426;2023-06-10T14:51:49;6.18;;;5.57;;
49730;SDS011;35622;52.008;5.426;2023-06-10T14:54:15;5.93;;;5.13;;
49730;SDS011;35622;52.008;5.426;2023-06-10T14:56:40;5.22;;;4.72;;
49730;SDS011;35622;52.008;5.426;2023-06-10T14:59:06;6.07;;;5.18;;
49730;SDS011;35622;52.008;5.426;2023-06-10T15:01:32;5.40;;;4.75;;
49730;SDS011;35622;52.008;5.426;2023-06-10T15:03:57;7.72;;;4.97;;
49730;SDS011;35622;52.008;5.426;2023-06-10T15:06:23;7.15;;;5.25;;
49730;SDS011;35622;52.008;5.426;2023-06-10T15:08:48;6.57;;;5.38;;
49730;SDS011;35622;52.008;5.426;2023-06-10T15:11:14;6.55;;;5.32;;